MSR24 HESH-HEGN
Flight info
| Callsign | MSR24 |
|---|---|
| Flight time | 0h 22m |
| Altitude | 10000 |
| Route | SHM R650 HGD |
| Aircraft | B738/M-SDE2E3FGHIRWXY/LB1 |
Departure
| Time | 2026-05-04 20:53 |
|---|---|
| Airport | Sharm El Sheikh International Airport (HESH) |
Arrival
| Time | 2026-05-04 21:15 |
|---|---|
| Airport | Hurghada International Airport (HEGN) |
| Time | Latitude | Longitude | Altitude | Speed | Heading |
|---|---|---|---|---|---|
| 2026-05-04 20:37 | 27.97817 | 34.38821 | 137 ft | 0 kts | 314° |
| 2026-05-04 20:45 | 27.97815 | 34.38823 | 137 ft | 2 kts | 313° |
| 2026-05-04 20:46 | 27.97800 | 34.38842 | 137 ft | 4 kts | 311° |
| 2026-05-04 20:46 | 27.97783 | 34.38865 | 137 ft | 4 kts | 306° |
| 2026-05-04 20:46 | 27.97768 | 34.38891 | 137 ft | 4 kts | 297° |
| 2026-05-04 20:46 | 27.97760 | 34.38911 | 137 ft | 0 kts | 288° |
| 2026-05-04 20:49 | 27.97758 | 34.38905 | 137 ft | 3 kts | 249° |
| 2026-05-04 20:49 | 27.97710 | 34.38857 | 137 ft | 16 kts | 222° |
| 2026-05-04 20:49 | 27.97622 | 34.38767 | 137 ft | 17 kts | 223° |
| 2026-05-04 20:50 | 27.97537 | 34.38677 | 137 ft | 16 kts | 223° |
| 2026-05-04 20:50 | 27.97455 | 34.38592 | 137 ft | 16 kts | 222° |
| 2026-05-04 20:50 | 27.97376 | 34.38510 | 137 ft | 15 kts | 223° |
| 2026-05-04 20:50 | 27.97301 | 34.38431 | 136 ft | 15 kts | 223° |
| 2026-05-04 20:51 | 27.97216 | 34.38342 | 136 ft | 20 kts | 222° |
| 2026-05-04 20:51 | 27.97098 | 34.38220 | 136 ft | 24 kts | 223° |
| 2026-05-04 20:51 | 27.96978 | 34.38138 | 136 ft | 20 kts | 166° |
| 2026-05-04 20:51 | 27.96881 | 34.38239 | 135 ft | 12 kts | 133° |
| 2026-05-04 20:52 | 27.96879 | 34.38294 | 135 ft | 8 kts | 52° |
| 2026-05-04 20:52 | 27.96950 | 34.38370 | 136 ft | 36 kts | 43° |
| 2026-05-04 20:52 | 27.97317 | 34.38753 | 137 ft | 106 kts | 42° |
| 2026-05-04 20:52 | 27.98013 | 34.39482 | 145 ft | 164 kts | 39° |
| 2026-05-04 20:53 | 27.98871 | 34.40428 | 714 ft | 176 kts | 41° |
| 2026-05-04 20:53 | 27.99613 | 34.41597 | 1316 ft | 197 kts | 68° |
| 2026-05-04 20:53 | 27.99645 | 34.43193 | 1880 ft | 214 kts | 107° |
| 2026-05-04 20:53 | 27.98752 | 34.44627 | 2195 ft | 236 kts | 142° |
| 2026-05-04 20:54 | 27.97204 | 34.45305 | 2775 ft | 246 kts | 175° |
| 2026-05-04 20:54 | 27.95485 | 34.44922 | 3194 ft | 263 kts | 208° |
| 2026-05-04 20:54 | 27.93948 | 34.43738 | 3949 ft | 268 kts | 218° |
| 2026-05-04 20:54 | 27.92517 | 34.42400 | 4997 ft | 266 kts | 220° |
| 2026-05-04 20:55 | 27.91107 | 34.41043 | 5925 ft | 268 kts | 221° |
| 2026-05-04 20:55 | 27.89672 | 34.39668 | 6748 ft | 272 kts | 221° |
| 2026-05-04 20:55 | 27.88235 | 34.38307 | 7666 ft | 270 kts | 222° |
| 2026-05-04 20:55 | 27.86789 | 34.36950 | 8594 ft | 270 kts | 223° |
| 2026-05-04 20:56 | 27.85337 | 34.35598 | 9451 ft | 272 kts | 224° |
| 2026-05-04 20:56 | 27.83879 | 34.34249 | 9848 ft | 269 kts | 224° |
| 2026-05-04 20:56 | 27.82418 | 34.32901 | 9980 ft | 275 kts | 224° |
| 2026-05-04 20:56 | 27.80926 | 34.31527 | 9988 ft | 277 kts | 224° |
| 2026-05-04 20:57 | 27.79439 | 34.30163 | 9985 ft | 274 kts | 224° |
| 2026-05-04 20:57 | 27.77964 | 34.28814 | 9989 ft | 272 kts | 224° |
| 2026-05-04 20:57 | 27.76498 | 34.27473 | 9989 ft | 271 kts | 224° |
| 2026-05-04 20:57 | 27.75056 | 34.26155 | 9991 ft | 270 kts | 224° |
| 2026-05-04 20:58 | 27.73598 | 34.24823 | 9987 ft | 270 kts | 224° |
| 2026-05-04 20:58 | 27.72137 | 34.23488 | 9990 ft | 270 kts | 224° |
| 2026-05-04 20:58 | 27.70674 | 34.22152 | 9991 ft | 271 kts | 224° |
| 2026-05-04 20:58 | 27.69202 | 34.20807 | 9983 ft | 274 kts | 223° |
| 2026-05-04 20:59 | 27.67711 | 34.19446 | 9991 ft | 277 kts | 223° |
| 2026-05-04 20:59 | 27.66210 | 34.18078 | 9989 ft | 277 kts | 223° |
| 2026-05-04 20:59 | 27.64710 | 34.16711 | 9973 ft | 277 kts | 223° |
| 2026-05-04 20:59 | 27.63209 | 34.15345 | 9980 ft | 277 kts | 223° |
| 2026-05-04 21:00 | 27.61707 | 34.13977 | 9984 ft | 277 kts | 223° |
| 2026-05-04 21:00 | 27.60207 | 34.12612 | 9987 ft | 277 kts | 223° |
| 2026-05-04 21:00 | 27.58709 | 34.11248 | 9990 ft | 277 kts | 223° |
| 2026-05-04 21:00 | 27.57715 | 34.10343 | 9992 ft | 277 kts | 223° |
| 2026-05-04 21:01 | 27.56216 | 34.08979 | 10007 ft | 277 kts | 223° |
| 2026-05-04 21:01 | 27.54712 | 34.07613 | 9998 ft | 278 kts | 223° |
| 2026-05-04 21:01 | 27.53208 | 34.06247 | 9987 ft | 278 kts | 223° |
| 2026-05-04 21:01 | 27.51669 | 34.04925 | 9990 ft | 279 kts | 219° |
| 2026-05-04 21:02 | 27.50064 | 34.03698 | 9999 ft | 279 kts | 218° |
| 2026-05-04 21:02 | 27.48441 | 34.02494 | 10013 ft | 280 kts | 218° |
| 2026-05-04 21:02 | 27.46809 | 34.01285 | 9983 ft | 282 kts | 218° |
| 2026-05-04 21:02 | 27.45175 | 34.00073 | 9986 ft | 281 kts | 218° |
| 2026-05-04 21:03 | 27.43550 | 33.98864 | 9998 ft | 279 kts | 218° |
| 2026-05-04 21:03 | 27.41936 | 33.97660 | 10010 ft | 278 kts | 218° |
| 2026-05-04 21:03 | 27.40328 | 33.96457 | 10005 ft | 277 kts | 218° |
| 2026-05-04 21:03 | 27.38724 | 33.95257 | 10019 ft | 277 kts | 218° |
| 2026-05-04 21:04 | 27.37123 | 33.94058 | 10018 ft | 276 kts | 218° |
| 2026-05-04 21:04 | 27.35538 | 33.92871 | 9929 ft | 273 kts | 218° |
| 2026-05-04 21:04 | 27.33955 | 33.91686 | 9747 ft | 272 kts | 218° |
| 2026-05-04 21:04 | 27.32391 | 33.90515 | 9503 ft | 269 kts | 218° |
| 2026-05-04 21:05 | 27.30842 | 33.89356 | 9250 ft | 266 kts | 217° |
| 2026-05-04 21:05 | 27.29156 | 33.88546 | 8941 ft | 274 kts | 193° |
| 2026-05-04 21:05 | 27.27243 | 33.88688 | 8682 ft | 281 kts | 167° |
| 2026-05-04 21:05 | 27.25419 | 33.89452 | 8488 ft | 278 kts | 161° |
| 2026-05-04 21:06 | 27.23654 | 33.90289 | 8355 ft | 271 kts | 161° |
| 2026-05-04 21:06 | 27.21945 | 33.91116 | 8283 ft | 264 kts | 161° |
| 2026-05-04 21:06 | 27.20221 | 33.91904 | 7903 ft | 274 kts | 163° |
| 2026-05-04 21:06 | 27.18409 | 33.92637 | 7432 ft | 278 kts | 164° |
| 2026-05-04 21:07 | 27.16574 | 33.93351 | 6959 ft | 280 kts | 164° |
| 2026-05-04 21:07 | 27.14714 | 33.94024 | 6505 ft | 281 kts | 166° |
| 2026-05-04 21:07 | 27.12853 | 33.94647 | 6045 ft | 276 kts | 166° |
| 2026-05-04 21:07 | 27.11024 | 33.95228 | 5563 ft | 271 kts | 167° |
| 2026-05-04 21:08 | 27.09218 | 33.95765 | 5067 ft | 266 kts | 167° |
| 2026-05-04 21:08 | 27.07433 | 33.96273 | 4560 ft | 263 kts | 167° |
| 2026-05-04 21:08 | 27.05671 | 33.96769 | 4124 ft | 257 kts | 167° |
| 2026-05-04 21:08 | 27.03959 | 33.97252 | 3744 ft | 251 kts | 167° |
| 2026-05-04 21:09 | 27.02267 | 33.97580 | 3388 ft | 241 kts | 188° |
| 2026-05-04 21:09 | 27.00848 | 33.96917 | 3123 ft | 209 kts | 235° |
| 2026-05-04 21:09 | 27.00291 | 33.95592 | 2890 ft | 178 kts | 268° |
| 2026-05-04 21:09 | 27.00104 | 33.94273 | 2706 ft | 169 kts | 273° |
| 2026-05-04 21:10 | 27.00156 | 33.92939 | 2636 ft | 184 kts | 284° |
| 2026-05-04 21:10 | 27.00576 | 33.91483 | 2536 ft | 205 kts | 303° |
| 2026-05-04 21:10 | 27.01395 | 33.90156 | 2423 ft | 208 kts | 307° |
| 2026-05-04 21:10 | 27.02211 | 33.88858 | 2289 ft | 196 kts | 307° |
| 2026-05-04 21:11 | 27.02961 | 33.87664 | 2222 ft | 178 kts | 307° |
| 2026-05-04 21:11 | 27.03633 | 33.86593 | 2203 ft | 158 kts | 307° |
| 2026-05-04 21:11 | 27.04231 | 33.85643 | 2191 ft | 144 kts | 307° |
| 2026-05-04 21:11 | 27.04800 | 33.84739 | 2217 ft | 142 kts | 307° |
| 2026-05-04 21:12 | 27.05419 | 33.83879 | 2203 ft | 142 kts | 326° |
| 2026-05-04 21:12 | 27.06353 | 33.83572 | 2280 ft | 142 kts | 343° |
| 2026-05-04 21:12 | 27.07318 | 33.83275 | 2234 ft | 142 kts | 341° |
| 2026-05-04 21:12 | 27.08269 | 33.82973 | 2222 ft | 141 kts | 341° |
| 2026-05-04 21:13 | 27.09210 | 33.82681 | 2168 ft | 142 kts | 341° |
| 2026-05-04 21:13 | 27.10205 | 33.82384 | 1762 ft | 149 kts | 342° |
| 2026-05-04 21:13 | 27.11200 | 33.82085 | 1420 ft | 148 kts | 340° |
| 2026-05-04 21:13 | 27.12197 | 33.81797 | 1073 ft | 146 kts | 342° |
| 2026-05-04 21:14 | 27.13190 | 33.81511 | 730 ft | 148 kts | 340° |
| 2026-05-04 21:14 | 27.14167 | 33.81236 | 551 ft | 140 kts | 338° |
| 2026-05-04 21:14 | 27.15142 | 33.80895 | 348 ft | 159 kts | 337° |
| 2026-05-04 21:14 | 27.16230 | 33.80587 | 99 ft | 160 kts | 340° |
| 2026-05-04 21:15 | 27.17242 | 33.80278 | 56 ft | 136 kts | 346° |
| 2026-05-04 21:15 | 27.17853 | 33.80097 | 58 ft | 66 kts | 345° |
| 2026-05-04 21:15 | 27.18222 | 33.79989 | 57 ft | 52 kts | 343° |
| 2026-05-04 21:15 | 27.18405 | 33.79937 | 52 ft | 9 kts | 347° |
| 2026-05-04 21:16 | 27.18452 | 33.79968 | 55 ft | 9 kts | 68° |
| 2026-05-04 21:16 | 27.18470 | 33.80035 | 54 ft | 9 kts | 77° |
| 2026-05-04 21:16 | 27.18423 | 33.80100 | 53 ft | 17 kts | 165° |
| 2026-05-04 21:16 | 27.18295 | 33.80139 | 57 ft | 19 kts | 165° |
| 2026-05-04 21:17 | 27.18210 | 33.80164 | 59 ft | 4 kts | 165° |
| 2026-05-04 21:17 | 27.18185 | 33.80174 | 60 ft | 4 kts | 151° |
| 2026-05-04 21:17 | 27.18171 | 33.80204 | 60 ft | 6 kts | 92° |
| 2026-05-04 21:17 | 27.18188 | 33.80285 | 56 ft | 13 kts | 75° |
| 2026-05-04 21:18 | 27.18203 | 33.80382 | 56 ft | 12 kts | 99° |
| 2026-05-04 21:18 | 27.18140 | 33.80437 | 60 ft | 12 kts | 166° |
| 2026-05-04 21:18 | 27.18083 | 33.80463 | 57 ft | 6 kts | 106° |
| 2026-05-04 21:18 | 27.18090 | 33.80510 | 58 ft | 6 kts | 75° |
| 2026-05-04 21:19 | 27.18098 | 33.80544 | 60 ft | 0 kts | 75° |
| 2026-05-04 21:19 | 27.18100 | 33.80553 | 60 ft | 1 kts | 75° |